createdAt,value
2019-02-26T00:00:42.306Z,9.67
2019-02-26T00:03:11.758Z,11.00
2019-02-26T00:05:41.913Z,10.33
2019-02-26T00:08:12.071Z,10.10
2019-02-26T00:10:42.239Z,9.77
2019-02-26T00:13:12.380Z,9.90
2019-02-26T00:15:43.247Z,9.97
2019-02-26T00:18:16.157Z,9.90
2019-02-26T00:20:46.284Z,9.80
2019-02-26T00:23:16.466Z,8.53
2019-02-26T00:25:46.603Z,9.37
2019-02-26T00:28:17.597Z,9.73
2019-02-26T00:30:48.613Z,9.93
2019-02-26T00:33:21.519Z,9.80
2019-02-26T00:35:50.643Z,10.30
2019-02-26T00:38:20.835Z,9.37
2019-02-26T00:40:50.977Z,10.27
2019-02-26T00:43:23.683Z,8.10
2019-02-26T00:45:53.456Z,9.73
2019-02-26T00:48:24.832Z,10.57
2019-02-26T00:50:56.624Z,10.33
2019-02-26T00:53:28.460Z,9.80
2019-02-26T00:56:00.994Z,8.57
2019-02-26T00:58:32.087Z,9.10
2019-02-26T01:01:02.391Z,10.40
2019-02-26T01:03:32.575Z,10.47
2019-02-26T01:06:04.133Z,9.60
2019-02-26T01:08:35.805Z,9.10
2019-02-26T01:11:08.271Z,9.20
2019-02-26T01:13:38.296Z,9.80
2019-02-26T01:16:08.543Z,9.53
2019-02-26T01:18:38.719Z,10.03
2019-02-26T01:21:08.865Z,9.83
2019-02-26T01:23:39.010Z,10.23
2019-02-26T01:26:10.078Z,8.83
2019-02-26T01:28:44.115Z,9.70
2019-02-26T01:31:12.903Z,9.00
2019-02-26T01:33:43.079Z,10.37
2019-02-26T01:36:14.006Z,9.73
2019-02-26T01:38:46.266Z,9.57
2019-02-26T01:41:17.959Z,8.77
2019-02-26T01:43:48.795Z,8.10
2019-02-26T01:46:18.980Z,7.70
2019-02-26T01:48:49.107Z,7.60
2019-02-26T01:51:20.014Z,8.73
2019-02-26T01:53:51.910Z,8.73
2019-02-26T01:56:22.959Z,8.10
2019-02-26T01:58:56.621Z,8.20
2019-02-26T02:01:26.172Z,7.30
2019-02-26T02:03:56.480Z,7.80
2019-02-26T02:06:26.617Z,7.37
2019-02-26T02:08:56.788Z,7.67
2019-02-26T02:11:30.608Z,6.97
2019-02-26T02:14:01.856Z,6.33
2019-02-26T02:16:31.457Z,6.50
2019-02-26T02:19:02.451Z,6.00
2019-02-26T02:21:35.502Z,6.17
2019-02-26T02:24:05.756Z,5.93
2019-02-26T02:26:37.242Z,6.00
2019-02-26T02:29:07.379Z,6.67
2019-02-26T02:31:38.240Z,6.10
2019-02-26T02:34:09.350Z,6.20
2019-02-26T02:36:39.538Z,6.90
2019-02-26T02:39:12.891Z,7.00
2019-02-26T02:41:42.109Z,5.70
2019-02-26T02:44:15.379Z,6.33
2019-02-26T02:46:46.668Z,6.23
2019-02-26T02:49:17.967Z,5.90
2019-02-26T02:51:48.246Z,6.13
2019-02-26T02:54:20.892Z,5.97
2019-02-26T02:56:50.300Z,6.47
2019-02-26T02:59:20.433Z,5.90
2019-02-26T03:01:52.699Z,7.17
2019-02-26T03:04:25.175Z,5.80
2019-02-26T03:06:55.566Z,6.83
2019-02-26T03:09:26.118Z,6.47
2019-02-26T03:11:56.282Z,6.57
2019-02-26T03:14:26.411Z,6.80
2019-02-26T03:16:56.583Z,6.73
2019-02-26T03:19:26.728Z,6.03
2019-02-26T03:21:56.900Z,6.73
2019-02-26T03:24:28.886Z,7.17
2019-02-26T03:26:58.961Z,6.20
2019-02-26T03:29:29.987Z,6.23
2019-02-26T03:32:00.127Z,6.93
2019-02-26T03:34:30.312Z,6.00
2019-02-26T03:37:03.005Z,6.00
2019-02-26T03:39:32.303Z,5.67
2019-02-26T03:42:02.451Z,6.00
2019-02-26T03:44:32.582Z,6.00
2019-02-26T03:47:02.756Z,6.27
2019-02-26T03:49:32.887Z,6.27
2019-02-26T03:52:03.061Z,6.00
2019-02-26T03:54:37.277Z,7.00
2019-02-26T03:57:06.064Z,6.40
2019-02-26T03:59:36.220Z,6.57
2019-02-26T04:02:07.280Z,6.60
2019-02-26T04:04:38.226Z,6.50
2019-02-26T04:07:10.627Z,5.70
2019-02-26T04:09:44.096Z,6.50
2019-02-26T04:12:13.552Z,6.13
2019-02-26T04:14:43.975Z,6.77
2019-02-26T04:17:14.121Z,6.93
2019-02-26T04:19:44.673Z,5.90
2019-02-26T04:22:31.819Z,5.60
2019-02-26T04:25:14.856Z,6.47
2019-02-26T04:28:02.713Z,6.37
2019-02-26T04:31:08.341Z,6.73
2019-02-26T04:34:18.404Z,6.30
2019-02-26T04:37:27.260Z,6.30
2019-02-26T04:40:40.969Z,6.80
2019-02-26T04:43:47.875Z,6.57
2019-02-26T04:46:39.595Z,6.80
2019-02-26T04:49:09.831Z,6.50
2019-02-26T04:51:44.501Z,6.73
2019-02-26T04:54:17.585Z,7.17
2019-02-26T04:56:45.122Z,6.17
2019-02-26T04:59:16.945Z,5.27
2019-02-26T05:01:49.891Z,7.00
2019-02-26T05:04:19.340Z,6.63
2019-02-26T05:06:49.492Z,5.90
2019-02-26T05:09:19.659Z,6.77
2019-02-26T05:11:49.800Z,7.07
2019-02-26T05:14:23.462Z,6.07
2019-02-26T05:16:51.887Z,6.63
2019-02-26T05:19:24.290Z,6.47
2019-02-26T05:21:55.974Z,7.10
2019-02-26T05:24:26.335Z,6.57
2019-02-26T05:26:56.659Z,5.97
2019-02-26T05:29:26.771Z,5.50
2019-02-26T05:31:58.872Z,5.53
2019-02-26T05:34:28.784Z,6.83
2019-02-26T05:36:59.757Z,5.93
2019-02-26T05:39:34.360Z,7.00
2019-02-26T05:42:14.109Z,6.83
2019-02-26T05:44:44.294Z,6.67
2019-02-26T05:47:16.714Z,6.30
2019-02-26T05:49:46.343Z,7.00
2019-02-26T05:52:16.484Z,6.53
2019-02-26T05:54:46.629Z,7.30
2019-02-26T05:57:26.076Z,7.90
2019-02-26T05:59:48.689Z,6.63
2019-02-26T06:02:21.131Z,6.77
2019-02-26T06:04:50.683Z,7.50
2019-02-26T06:07:24.070Z,8.00
2019-02-26T06:09:54.226Z,7.27
2019-02-26T06:12:24.557Z,6.80
2019-02-26T06:14:57.554Z,6.63
2019-02-26T06:17:26.631Z,7.30
2019-02-26T06:20:07.435Z,7.60
2019-02-26T06:22:36.445Z,8.50
2019-02-26T06:25:12.434Z,7.50
2019-02-26T06:27:38.577Z,8.53
2019-02-26T06:30:12.314Z,7.80
2019-02-26T06:32:44.367Z,9.23
2019-02-26T06:35:16.529Z,10.63
2019-02-26T06:37:46.765Z,9.67
2019-02-26T06:40:16.983Z,9.63
2019-02-26T06:42:47.108Z,9.83
2019-02-26T06:45:17.271Z,11.43
2019-02-26T06:47:48.412Z,9.57
2019-02-26T06:50:19.330Z,7.83
2019-02-26T06:52:50.726Z,8.67
2019-02-26T06:55:21.043Z,7.37
2019-02-26T06:57:52.797Z,7.60
2019-02-26T07:00:25.320Z,7.03
2019-02-26T07:02:54.903Z,7.90
2019-02-26T07:05:25.051Z,7.10
2019-02-26T07:07:57.045Z,7.30
2019-02-26T07:10:30.776Z,7.80
2019-02-26T07:12:58.959Z,7.60
2019-02-26T07:15:29.469Z,7.40
2019-02-26T07:18:02.456Z,6.87
2019-02-26T07:20:34.141Z,6.67
2019-02-26T07:23:03.946Z,6.70
2019-02-26T07:25:37.040Z,6.50
2019-02-26T07:28:07.146Z,6.53
2019-02-26T07:30:38.012Z,6.20
2019-02-26T07:33:10.366Z,6.00
2019-02-26T07:35:41.015Z,6.70
2019-02-26T07:38:11.164Z,7.30
2019-02-26T07:40:41.372Z,7.10
2019-02-26T07:43:12.743Z,7.10
2019-02-26T07:45:43.392Z,7.80
2019-02-26T07:48:16.439Z,8.07
2019-02-26T07:50:46.338Z,8.07
2019-02-26T07:53:19.694Z,7.57
2019-02-26T07:55:49.186Z,8.70
2019-02-26T07:58:19.384Z,7.77
2019-02-26T08:00:52.006Z,7.77
2019-02-26T08:03:23.759Z,7.30
2019-02-26T08:05:53.295Z,8.40
2019-02-26T08:08:23.457Z,7.77
2019-02-26T08:10:53.632Z,7.63
2019-02-26T08:13:25.843Z,8.30
2019-02-26T08:15:57.678Z,8.10
2019-02-26T08:18:27.673Z,6.90
2019-02-26T08:20:59.934Z,7.80
2019-02-26T08:23:29.796Z,7.83
2019-02-26T08:26:02.144Z,7.67
2019-02-26T08:28:31.794Z,8.47
2019-02-26T08:31:01.935Z,6.93
2019-02-26T08:33:32.108Z,7.90
2019-02-26T08:36:02.223Z,6.33
2019-02-26T08:38:33.416Z,6.60
2019-02-26T08:41:03.608Z,6.30
2019-02-26T08:43:33.755Z,6.47
2019-02-26T08:46:03.987Z,5.73
2019-02-26T08:48:34.243Z,7.13
2019-02-26T08:51:06.169Z,7.30
2019-02-26T08:53:36.252Z,6.73
2019-02-26T08:56:08.388Z,6.20
2019-02-26T08:58:38.359Z,6.97
2019-02-26T09:01:08.504Z,6.13
2019-02-26T09:03:40.892Z,5.90
2019-02-26T09:06:13.507Z,6.83
2019-02-26T09:08:43.147Z,6.00
2019-02-26T09:11:14.101Z,5.83
2019-02-26T09:13:45.464Z,6.30
2019-02-26T09:16:21.796Z,6.50
2019-02-26T09:18:50.570Z,7.07
2019-02-26T09:21:22.786Z,6.00
2019-02-26T09:23:56.802Z,6.63
2019-02-26T09:26:25.455Z,5.83
2019-02-26T09:28:57.179Z,6.40
2019-02-26T09:31:27.438Z,5.73
2019-02-26T09:33:57.583Z,6.07
2019-02-26T09:36:29.321Z,6.40
2019-02-26T09:38:59.692Z,6.10
2019-02-26T09:41:29.878Z,6.20
2019-02-26T09:44:01.908Z,7.10
2019-02-26T09:46:35.802Z,6.00
2019-02-26T09:49:05.088Z,6.20
2019-02-26T09:51:37.617Z,6.27
2019-02-26T09:54:10.314Z,5.43
2019-02-26T09:56:40.428Z,6.30
2019-02-26T09:59:13.032Z,6.10
2019-02-26T10:01:42.906Z,6.07
2019-02-26T10:04:13.143Z,5.80
2019-02-26T10:06:45.013Z,6.40
2019-02-26T10:09:16.218Z,5.80
2019-02-26T10:11:49.158Z,6.20
2019-02-26T10:14:18.963Z,6.20
2019-02-26T10:16:51.536Z,5.73
2019-02-26T10:19:21.076Z,6.00
2019-02-26T10:21:51.223Z,5.60
2019-02-26T10:24:25.207Z,5.80
2019-02-26T10:26:53.429Z,5.63
2019-02-26T10:29:23.641Z,6.20
2019-02-26T10:31:56.100Z,6.10
2019-02-26T10:34:30.165Z,6.33
2019-02-26T10:36:57.584Z,6.47
2019-02-26T10:39:28.342Z,5.90
2019-02-26T10:42:01.932Z,6.00
2019-02-26T10:44:30.407Z,6.00
2019-02-26T10:47:03.049Z,5.90
2019-02-26T10:49:32.486Z,5.13
2019-02-26T10:52:02.648Z,6.00
2019-02-26T10:54:37.488Z,5.80
2019-02-26T10:57:07.429Z,6.20
2019-02-26T10:59:36.543Z,6.77
2019-02-26T11:02:06.992Z,7.03
2019-02-26T11:04:41.115Z,7.40
2019-02-26T11:07:11.485Z,7.10
2019-02-26T11:09:41.039Z,6.20
2019-02-26T11:12:11.205Z,6.23
2019-02-26T11:14:41.938Z,6.40
2019-02-26T11:17:13.177Z,6.10
2019-02-26T11:19:43.503Z,6.03
2019-02-26T11:22:17.735Z,6.20
2019-02-26T11:24:48.550Z,6.63
2019-02-26T11:27:18.973Z,6.47
2019-02-26T11:29:49.133Z,6.60
2019-02-26T11:32:19.296Z,6.27
2019-02-26T11:34:50.854Z,6.07
2019-02-26T11:37:22.611Z,7.03
2019-02-26T11:39:55.000Z,6.13
2019-02-26T11:42:26.191Z,6.33
2019-02-26T11:44:56.955Z,7.67
2019-02-26T11:47:27.228Z,7.33
2019-02-26T11:49:59.519Z,7.60
2019-02-26T11:52:29.259Z,8.50
2019-02-26T11:55:03.242Z,8.50
2019-02-26T11:57:34.882Z,8.50
2019-02-26T12:00:06.706Z,7.80
2019-02-26T12:02:38.723Z,8.40
2019-02-26T12:05:10.687Z,7.97
2019-02-26T12:07:40.620Z,8.27
2019-02-26T12:10:14.526Z,8.40
2019-02-26T12:12:43.683Z,10.30
2019-02-26T12:15:15.238Z,11.07
2019-02-26T12:17:49.344Z,7.57
2019-02-26T12:20:19.558Z,8.90
2019-02-26T12:22:52.323Z,8.70
2019-02-26T12:25:23.649Z,9.10
2019-02-26T12:27:53.832Z,11.20
2019-02-26T12:30:24.064Z,12.03
2019-02-26T12:32:55.123Z,12.80
2019-02-26T12:35:25.475Z,12.20
2019-02-26T12:37:58.809Z,6.30
2019-02-26T12:40:27.495Z,11.10
2019-02-26T12:42:57.707Z,10.57
2019-02-26T12:45:28.593Z,6.43
2019-02-26T12:47:59.784Z,9.87
2019-02-26T12:50:32.990Z,6.33
2019-02-26T12:53:01.795Z,7.40
2019-02-26T12:55:35.126Z,6.17
2019-02-26T12:58:03.880Z,5.70
2019-02-26T13:00:35.003Z,5.40
2019-02-26T13:03:08.385Z,6.33
2019-02-26T13:05:39.237Z,7.60
2019-02-26T13:08:12.132Z,7.50
2019-02-26T13:10:42.613Z,8.30
2019-02-26T13:13:13.400Z,9.20
2019-02-26T13:15:43.625Z,8.57
2019-02-26T13:18:13.780Z,8.10
2019-02-26T13:20:44.019Z,7.80
2019-02-26T13:25:46.126Z,7.57
2019-02-26T13:28:16.280Z,8.40
2019-02-26T13:30:46.468Z,8.43
2019-02-26T13:33:21.233Z,9.47
2019-02-26T13:35:52.460Z,8.00
2019-02-26T13:38:24.770Z,8.13
2019-02-26T13:40:58.787Z,8.17
2019-02-26T13:43:25.316Z,9.67
2019-02-26T13:45:55.471Z,9.43
2019-02-26T13:48:25.664Z,9.57
2019-02-26T13:50:56.054Z,9.23
2019-02-26T13:53:26.256Z,8.80
2019-02-26T13:55:56.399Z,9.40
2019-02-26T13:58:26.583Z,10.47
2019-02-26T14:00:56.887Z,9.30
2019-02-26T14:03:27.114Z,10.30
2019-02-26T14:05:57.367Z,10.23
2019-02-26T14:08:27.528Z,10.53
2019-02-26T14:10:57.700Z,11.17
2019-02-26T14:13:27.867Z,11.20
2019-02-26T14:15:58.128Z,10.20
2019-02-26T14:18:28.359Z,11.17
2019-02-26T14:20:58.596Z,11.40
2019-02-26T14:23:34.740Z,11.87
2019-02-26T14:26:00.911Z,10.80
2019-02-26T14:28:31.128Z,11.97
2019-02-26T14:31:02.680Z,12.40
2019-02-26T14:33:32.922Z,12.13
2019-02-26T14:36:03.101Z,12.30
2019-02-26T14:38:33.581Z,12.47
2019-02-26T14:41:03.816Z,11.37
2019-02-26T14:43:33.985Z,12.70
2019-02-26T14:46:04.157Z,12.70
2019-02-26T14:48:34.319Z,14.63
2019-02-26T14:51:04.507Z,14.47
2019-02-26T14:53:34.691Z,14.73
2019-02-26T14:56:05.151Z,14.27
2019-02-26T14:58:35.324Z,12.50
2019-02-26T15:01:05.978Z,13.70
2019-02-26T15:03:36.137Z,14.20
2019-02-26T15:06:06.344Z,15.27
2019-02-26T15:08:36.556Z,15.33
2019-02-26T15:11:06.752Z,14.90
2019-02-26T15:13:36.914Z,16.60
2019-02-26T15:16:07.125Z,16.83
2019-02-26T15:18:37.431Z,16.10
2019-02-26T15:21:07.705Z,17.17
2019-02-26T15:23:38.896Z,18.10
2019-02-26T15:26:09.094Z,18.13
2019-02-26T15:28:39.395Z,17.83
2019-02-26T15:31:10.584Z,16.47
2019-02-26T15:33:40.782Z,18.07
2019-02-26T15:36:11.931Z,16.10
2019-02-26T15:38:42.106Z,16.67
2019-02-26T15:41:12.289Z,16.63
2019-02-26T15:43:43.458Z,16.80
2019-02-26T15:46:13.663Z,17.17
2019-02-26T15:48:44.800Z,15.90
2019-02-26T15:51:19.851Z,15.77
2019-02-26T15:53:46.969Z,14.70
2019-02-26T15:56:17.162Z,15.13
2019-02-26T15:58:47.323Z,15.10
2019-02-26T16:01:17.540Z,17.53
2019-02-26T16:03:47.715Z,15.80
2019-02-26T16:06:18.077Z,15.80
2019-02-26T16:08:48.273Z,15.40
2019-02-26T16:11:18.460Z,16.93
2019-02-26T16:13:48.684Z,18.80
2019-02-26T16:16:18.892Z,16.50
2019-02-26T16:18:49.033Z,16.67
2019-02-26T16:21:19.426Z,16.27
2019-02-26T16:23:49.658Z,17.33
2019-02-26T16:26:19.997Z,16.23
2019-02-26T16:28:51.206Z,16.07
2019-02-26T16:31:21.367Z,15.93
2019-02-26T16:33:51.554Z,14.13
2019-02-26T16:36:22.000Z,14.30
2019-02-26T16:38:52.204Z,14.10
2019-02-26T16:41:22.390Z,13.10
2019-02-26T16:43:52.640Z,13.00
2019-02-26T16:46:23.841Z,11.63
2019-02-26T16:48:54.137Z,12.90
2019-02-26T16:51:24.515Z,11.60
2019-02-26T16:53:54.758Z,12.67
2019-02-26T16:56:24.922Z,12.30
2019-02-26T16:58:55.344Z,12.20
2019-02-26T17:01:25.545Z,11.90
2019-02-26T17:03:56.767Z,12.57
2019-02-26T17:06:26.930Z,12.83
2019-02-26T17:08:57.124Z,13.60
2019-02-26T17:11:27.304Z,12.60
2019-02-26T17:13:57.599Z,14.07
2019-02-26T17:16:31.309Z,13.00
2019-02-26T17:18:59.757Z,12.93
2019-02-26T17:21:30.791Z,11.90
2019-02-26T17:24:01.456Z,13.60
2019-02-26T17:26:33.352Z,14.00
2019-02-26T17:29:03.655Z,14.90
2019-02-26T17:31:33.821Z,13.03
2019-02-26T17:34:05.440Z,12.77
2019-02-26T17:36:35.992Z,14.17
2019-02-26T17:39:07.208Z,13.33
2019-02-26T17:41:37.762Z,22.30
2019-02-26T17:44:08.165Z,22.77
2019-02-26T17:46:39.315Z,24.53
2019-02-26T17:49:09.511Z,20.43
2019-02-26T17:51:39.684Z,23.20
2019-02-26T17:54:09.913Z,25.73
2019-02-26T17:56:40.105Z,25.20
2019-02-26T17:59:10.339Z,23.90
2019-02-26T18:01:40.521Z,20.63
2019-02-26T18:04:10.784Z,17.17
2019-02-26T18:06:40.947Z,15.73
2019-02-26T18:09:11.355Z,14.43
2019-02-26T18:11:41.542Z,16.43
2019-02-26T18:14:11.727Z,16.20
2019-02-26T18:16:41.912Z,16.77
2019-02-26T18:19:12.462Z,16.87
2019-02-26T18:21:44.003Z,20.27
2019-02-26T18:24:14.393Z,18.87
2019-02-26T18:26:44.673Z,18.57
2019-02-26T18:29:14.912Z,15.73
2019-02-26T18:31:46.179Z,17.30
2019-02-26T18:34:16.380Z,17.53
2019-02-26T18:36:46.625Z,17.97
2019-02-26T18:39:16.902Z,20.67
2019-02-26T18:41:50.666Z,20.47
2019-02-26T18:44:20.687Z,19.60
2019-02-26T18:46:51.097Z,22.00
2019-02-26T18:49:21.860Z,21.90
2019-02-26T18:51:52.632Z,19.77
2019-02-26T18:54:22.971Z,18.67
2019-02-26T18:56:53.926Z,19.67
2019-02-26T18:59:24.261Z,17.80
2019-02-26T19:01:54.414Z,20.47
2019-02-26T19:04:24.710Z,17.37
2019-02-26T19:06:59.459Z,18.27
2019-02-26T19:09:27.830Z,16.50
2019-02-26T19:11:58.417Z,15.13
2019-02-26T19:14:28.667Z,15.63
2019-02-26T19:16:58.868Z,16.57
2019-02-26T19:19:29.060Z,13.50
2019-02-26T19:21:59.331Z,14.60
2019-02-26T19:24:29.588Z,14.73
2019-02-26T19:26:59.803Z,16.10
2019-02-26T19:29:31.654Z,14.97
2019-02-26T19:32:02.017Z,14.33
2019-02-26T19:34:32.173Z,13.63
2019-02-26T19:37:02.361Z,15.03
2019-02-26T19:39:33.756Z,17.00
2019-02-26T19:42:04.485Z,15.50
2019-02-26T19:44:35.936Z,15.80
2019-02-26T19:47:06.643Z,15.87
2019-02-26T19:49:39.523Z,16.97
2019-02-26T19:52:08.759Z,17.70
2019-02-26T19:54:41.562Z,14.37
2019-02-26T19:57:12.262Z,16.17
2019-02-26T19:59:46.864Z,16.07
2019-02-26T20:02:14.534Z,13.50
2019-02-26T20:04:44.773Z,16.27
2019-02-26T20:07:14.972Z,13.40
2019-02-26T20:09:45.156Z,14.90
2019-02-26T20:12:15.351Z,15.70
2019-02-26T20:14:48.560Z,18.57
2019-02-26T20:17:17.563Z,16.13
2019-02-26T20:19:47.735Z,16.67
2019-02-26T20:22:17.937Z,17.00
2019-02-26T20:24:48.104Z,16.83
2019-02-26T20:27:21.589Z,18.20
2019-02-26T20:29:50.275Z,15.23
2019-02-26T20:32:20.446Z,16.87
2019-02-26T20:34:52.103Z,16.70
2019-02-26T20:37:24.391Z,16.30
2019-02-26T20:39:54.377Z,15.93
2019-02-26T20:42:26.786Z,15.97
2019-02-26T20:44:58.998Z,16.83
2019-02-26T20:47:31.184Z,15.97
2019-02-26T20:50:00.371Z,16.40
2019-02-26T20:52:32.698Z,16.60
2019-02-26T20:55:02.501Z,17.27
2019-02-26T20:57:37.380Z,16.90
2019-02-26T21:00:05.247Z,15.33
2019-02-26T21:02:37.267Z,16.40
2019-02-26T21:05:07.883Z,15.73
2019-02-26T21:07:38.506Z,15.43
2019-02-26T21:10:09.481Z,17.63
2019-02-26T21:12:39.809Z,16.43
2019-02-26T21:15:14.790Z,17.63
2019-02-26T21:17:45.055Z,18.30
2019-02-26T21:20:15.264Z,15.90
2019-02-26T21:22:45.487Z,17.17
2019-02-26T21:25:15.816Z,16.67
2019-02-26T21:27:46.086Z,17.70
2019-02-26T21:30:17.263Z,17.17
2019-02-26T21:32:47.479Z,16.50
2019-02-26T21:35:20.209Z,16.87
2019-02-26T21:37:49.543Z,16.17
2019-02-26T21:40:19.774Z,15.50
2019-02-26T21:42:49.967Z,18.00
2019-02-26T21:45:20.135Z,16.60
2019-02-26T21:47:50.500Z,19.00
2019-02-26T21:50:22.741Z,17.23
2019-02-26T21:52:59.992Z,15.83
2019-02-26T21:55:24.549Z,17.90
2019-02-26T21:57:55.339Z,17.07
2019-02-26T22:00:25.655Z,15.93
2019-02-26T22:02:55.865Z,15.53
2019-02-26T22:05:26.043Z,16.07
2019-02-26T22:07:56.236Z,17.13
2019-02-26T22:10:26.547Z,18.50
2019-02-26T22:12:57.305Z,17.90
2019-02-26T22:15:27.525Z,17.00
2019-02-26T22:17:58.183Z,15.83
2019-02-26T22:20:36.277Z,17.03
2019-02-26T22:23:01.163Z,17.57
2019-02-26T22:25:31.492Z,16.40
2019-02-26T22:28:01.660Z,15.33
2019-02-26T22:30:31.844Z,18.57
2019-02-26T22:33:02.014Z,16.13
2019-02-26T22:35:32.213Z,15.57
2019-02-26T22:38:02.380Z,16.13
2019-02-26T22:40:34.201Z,15.60
2019-02-26T22:43:04.479Z,17.43
2019-02-26T22:45:34.643Z,14.57
2019-02-26T22:48:04.822Z,16.10
2019-02-26T22:50:35.006Z,13.53
2019-02-26T22:53:05.251Z,16.23
2019-02-26T22:55:35.472Z,15.30
2019-02-26T22:58:05.662Z,17.30
2019-02-26T23:01:04.351Z,15.57
2019-02-26T23:03:36.440Z,14.13
2019-02-26T23:06:06.706Z,14.30
2019-02-26T23:08:37.063Z,14.80
2019-02-26T23:11:07.595Z,14.67
2019-02-26T23:13:37.972Z,16.40
2019-02-26T23:16:08.603Z,15.63
2019-02-26T23:18:38.949Z,16.20
2019-02-26T23:21:09.875Z,14.90
2019-02-26T23:23:40.302Z,14.83
2019-02-26T23:26:10.656Z,14.97
2019-02-26T23:28:40.890Z,13.80
2019-02-26T23:31:11.615Z,16.20
2019-02-26T23:33:41.752Z,14.83
2019-02-26T23:36:12.815Z,14.37
2019-02-26T23:38:44.180Z,15.97
2019-02-26T23:41:14.923Z,14.87
2019-02-26T23:43:45.377Z,16.40
2019-02-26T23:46:16.226Z,16.00
2019-02-26T23:48:46.367Z,16.57
2019-02-26T23:51:20.113Z,16.10
2019-02-26T23:53:48.359Z,16.93
2019-02-26T23:56:19.098Z,16.80
2019-02-26T23:58:50.959Z,15.57
